createdAt,value
2019-02-02T00:02:26.854Z,97281.73
2019-02-02T00:04:58.284Z,97292.74
2019-02-02T00:07:32.175Z,97295.78
2019-02-02T00:10:03.755Z,97297.38
2019-02-02T00:12:35.239Z,97296.45
2019-02-02T00:15:07.696Z,97301.88
2019-02-02T00:17:39.282Z,97307.67
2019-02-02T00:20:11.190Z,97301.58
2019-02-02T00:22:42.905Z,97302.17
2019-02-02T00:25:15.034Z,97298.78
2019-02-02T00:27:47.074Z,97302.71
2019-02-02T00:30:18.787Z,97305.09
2019-02-02T00:32:50.489Z,97305.05
2019-02-02T00:35:21.970Z,97297.58
2019-02-02T00:37:53.651Z,97299.45
2019-02-02T00:40:25.352Z,97303.16
2019-02-02T00:42:57.004Z,97300.36
2019-02-02T00:45:28.594Z,97297.41
2019-02-02T00:48:00.259Z,97299.52
2019-02-02T00:50:31.969Z,97304.42
2019-02-02T00:53:03.716Z,97302.61
2019-02-02T00:55:35.316Z,97295.35
2019-02-02T00:58:08.182Z,97298.30
2019-02-02T01:00:39.856Z,97300.18
2019-02-02T01:03:11.363Z,97301.94
2019-02-02T01:05:44.096Z,97289.03
2019-02-02T01:08:15.666Z,97285.00
2019-02-02T01:10:47.321Z,97288.94
2019-02-02T01:13:18.958Z,97276.86
2019-02-02T01:15:50.557Z,97284.55
2019-02-02T01:18:22.092Z,97280.70
2019-02-02T01:20:54.134Z,97276.50
2019-02-02T01:23:25.683Z,97270.74
2019-02-02T01:25:57.294Z,97266.27
2019-02-02T01:28:29.543Z,97268.92
2019-02-02T01:31:01.182Z,97262.95
2019-02-02T01:33:32.789Z,97260.27
2019-02-02T01:36:04.488Z,97260.81
2019-02-02T01:38:36.183Z,97258.92
2019-02-02T01:41:07.871Z,97257.05
2019-02-02T01:43:39.422Z,97251.00
2019-02-02T01:46:11.791Z,97261.19
2019-02-02T01:48:43.337Z,97254.12
2019-02-02T01:51:14.974Z,97257.08
2019-02-02T01:53:49.470Z,97256.48
2019-02-02T01:56:21.021Z,97261.91
2019-02-02T01:58:52.689Z,97262.50
2019-02-02T02:01:24.294Z,97263.63
2019-02-02T02:03:55.975Z,97260.67
2019-02-02T02:06:27.431Z,97265.59
2019-02-02T02:08:59.150Z,97258.91
2019-02-02T02:11:30.617Z,97263.41
2019-02-02T02:14:02.244Z,97258.16
2019-02-02T02:16:33.782Z,97258.38
2019-02-02T02:19:05.395Z,97257.63
2019-02-02T02:21:37.216Z,97253.03
2019-02-02T02:24:10.012Z,97258.97
2019-02-02T02:26:41.762Z,97253.17
2019-02-02T02:29:13.627Z,97248.20
2019-02-02T02:31:45.224Z,97249.33
2019-02-02T02:34:17.034Z,97244.13
2019-02-02T02:36:49.882Z,97238.26
2019-02-02T02:39:21.557Z,97239.09
2019-02-02T02:41:53.195Z,97244.97
2019-02-02T02:44:26.077Z,97236.83
2019-02-02T02:46:57.692Z,97241.96
2019-02-02T02:49:30.803Z,97244.20
2019-02-02T02:52:02.357Z,97242.24
2019-02-02T02:54:43.465Z,97243.20
2019-02-02T02:57:15.101Z,97241.23
2019-02-02T02:59:46.682Z,97242.66
2019-02-02T03:02:18.241Z,97243.74
2019-02-02T03:04:49.935Z,97241.63
2019-02-02T03:07:21.542Z,97245.30
2019-02-02T03:09:53.195Z,97240.63
2019-02-02T03:12:24.785Z,97240.84
2019-02-02T03:14:56.276Z,97246.66
2019-02-02T03:17:27.874Z,97242.13
2019-02-02T03:19:59.414Z,97234.22
2019-02-02T03:22:31.072Z,97228.17
2019-02-02T03:25:05.190Z,97230.59
2019-02-02T03:27:36.765Z,97231.66
2019-02-02T03:30:10.558Z,97229.55
2019-02-02T03:32:42.164Z,97229.31
2019-02-02T03:35:15.125Z,97233.13
2019-02-02T03:37:47.295Z,97234.83
2019-02-02T03:40:21.606Z,97235.03
2019-02-02T03:42:53.577Z,97236.22
2019-02-02T03:45:25.776Z,97233.66
2019-02-02T03:47:57.337Z,97232.42
2019-02-02T03:50:28.862Z,97233.17
2019-02-02T03:53:00.404Z,97236.42
2019-02-02T03:55:31.934Z,97240.18
2019-02-02T03:58:03.615Z,97236.66
2019-02-02T04:00:35.168Z,97234.14
2019-02-02T04:03:06.703Z,97235.95
2019-02-02T04:05:38.487Z,97232.50
2019-02-02T04:08:10.056Z,97232.23
2019-02-02T04:10:41.644Z,97228.36
2019-02-02T04:13:13.280Z,97226.74
2019-02-02T04:15:44.922Z,97234.55
2019-02-02T04:18:16.655Z,97238.98
2019-02-02T04:20:49.442Z,97237.94
2019-02-02T04:23:21.016Z,97243.16
2019-02-02T04:25:52.674Z,97244.89
2019-02-02T04:28:24.255Z,97246.27
2019-02-02T04:30:55.871Z,97248.53
2019-02-02T04:33:27.498Z,97254.34
2019-02-02T04:35:58.905Z,97253.42
2019-02-02T04:38:30.565Z,97253.81
2019-02-02T04:41:02.150Z,97252.05
2019-02-02T04:43:33.839Z,97251.25
2019-02-02T04:46:05.404Z,97255.38
2019-02-02T04:48:37.554Z,97259.48
2019-02-02T04:51:09.241Z,97258.79
2019-02-02T04:53:40.720Z,97253.08
2019-02-02T04:56:12.297Z,97253.22
2019-02-02T04:58:43.966Z,97261.05
2019-02-02T05:01:15.613Z,97263.70
2019-02-02T05:03:47.125Z,97261.66
2019-02-02T05:06:18.667Z,97269.35
2019-02-02T05:08:50.293Z,97273.41
2019-02-02T05:11:21.947Z,97271.61
2019-02-02T05:13:53.425Z,97267.23
2019-02-02T05:16:25.064Z,97268.15
2019-02-02T05:18:56.482Z,97270.94
2019-02-02T05:21:28.170Z,97266.11
2019-02-02T05:23:59.685Z,97268.67
2019-02-02T05:26:31.244Z,97279.37
2019-02-02T05:29:02.864Z,97277.42
2019-02-02T05:31:34.423Z,97273.70
2019-02-02T05:34:07.910Z,97275.88
2019-02-02T05:36:39.580Z,97266.37
2019-02-02T05:39:11.678Z,97266.45
2019-02-02T05:41:43.204Z,97269.02
2019-02-02T05:44:14.722Z,97267.61
2019-02-02T05:46:46.352Z,97273.17
2019-02-02T05:49:18.133Z,97280.63
2019-02-02T05:51:49.715Z,97269.98
2019-02-02T05:54:21.349Z,97269.84
2019-02-02T05:56:52.987Z,97269.70
2019-02-02T05:59:25.848Z,97273.23
2019-02-02T06:01:57.431Z,97277.81
2019-02-02T06:04:29.005Z,97280.09
2019-02-02T06:07:02.833Z,97285.73
2019-02-02T06:09:34.429Z,97286.28
2019-02-02T06:12:05.957Z,97289.72
2019-02-02T06:14:37.490Z,97287.36
2019-02-02T06:17:09.155Z,97289.23
2019-02-02T06:19:40.795Z,97289.97
2019-02-02T06:22:12.501Z,97291.21
2019-02-02T06:24:44.181Z,97294.77
2019-02-02T06:27:18.274Z,97293.44
2019-02-02T06:30:03.741Z,97292.35
2019-02-02T06:32:26.193Z,97288.30
2019-02-02T06:34:57.837Z,97285.41
2019-02-02T06:37:29.344Z,97295.34
2019-02-02T06:40:01.113Z,97287.63
2019-02-02T06:42:34.461Z,97291.45
2019-02-02T06:45:10.035Z,97297.28
2019-02-02T06:47:41.575Z,97293.28
2019-02-02T06:50:16.141Z,97293.23
2019-02-02T06:52:47.661Z,97303.22
2019-02-02T06:55:19.286Z,97294.77
2019-02-02T06:57:50.983Z,97286.08
2019-02-02T07:00:26.337Z,97290.27
2019-02-02T07:02:57.630Z,97285.23
2019-02-02T07:05:29.254Z,97290.27
2019-02-02T07:08:00.637Z,97280.45
2019-02-02T07:10:32.266Z,97287.22
2019-02-02T07:13:04.306Z,97283.20
2019-02-02T07:15:35.995Z,97296.00
2019-02-02T07:18:07.794Z,97292.58
2019-02-02T07:20:39.469Z,97289.27
2019-02-02T07:23:11.038Z,97290.94
2019-02-02T07:25:42.532Z,97299.55
2019-02-02T07:28:14.260Z,97296.43
2019-02-02T07:30:45.743Z,97299.74
2019-02-02T07:33:17.395Z,97298.65
2019-02-02T07:35:49.045Z,97288.88
2019-02-02T07:38:20.613Z,97292.22
2019-02-02T07:40:52.204Z,97294.83
2019-02-02T07:43:24.446Z,97300.58
2019-02-02T07:45:56.250Z,97296.27
2019-02-02T07:48:28.287Z,97295.56
2019-02-02T07:50:59.987Z,97295.76
2019-02-02T07:53:31.559Z,97299.61
2019-02-02T07:56:03.176Z,97300.02
2019-02-02T07:58:34.820Z,97295.14
2019-02-02T08:01:06.502Z,97300.48
2019-02-02T08:03:38.465Z,97295.69
2019-02-02T08:06:10.100Z,97293.61
2019-02-02T08:08:41.815Z,97295.28
2019-02-02T08:11:13.556Z,97293.53
2019-02-02T08:13:44.980Z,97292.70
2019-02-02T08:16:16.528Z,97289.67
2019-02-02T08:18:48.155Z,97284.63
2019-02-02T08:21:19.707Z,97289.86
2019-02-02T08:23:51.347Z,97282.59
2019-02-02T08:26:23.010Z,97279.47
2019-02-02T08:28:54.559Z,97280.24
2019-02-02T08:31:26.217Z,97282.61
2019-02-02T08:33:58.315Z,97285.84
2019-02-02T08:36:29.976Z,97283.07
2019-02-02T08:39:01.566Z,97288.80
2019-02-02T08:41:33.385Z,97286.05
2019-02-02T08:44:05.231Z,97287.20
2019-02-02T08:46:36.867Z,97288.43
2019-02-02T08:49:08.430Z,97291.11
2019-02-02T08:51:40.000Z,97301.69
2019-02-02T08:54:11.576Z,97303.02
2019-02-02T08:56:43.247Z,97303.87
2019-02-02T08:59:14.944Z,97308.55
2019-02-02T09:01:48.154Z,97311.48
2019-02-02T09:04:20.087Z,97310.92
2019-02-02T09:06:53.395Z,97312.71
2019-02-02T09:09:25.133Z,97310.66
2019-02-02T09:11:56.807Z,97316.48
2019-02-02T09:14:28.431Z,97309.97
2019-02-02T09:17:00.120Z,97311.44
2019-02-02T09:19:31.791Z,97304.61
2019-02-02T09:22:03.414Z,97313.49
2019-02-02T09:24:35.002Z,97310.83
2019-02-02T09:27:06.522Z,97315.11
2019-02-02T09:29:38.162Z,97312.03
2019-02-02T09:32:09.843Z,97311.08
2019-02-02T09:34:41.542Z,97301.23
2019-02-02T09:37:13.118Z,97301.23
2019-02-02T09:39:44.724Z,97298.52
2019-02-02T09:42:16.417Z,97306.42
2019-02-02T09:44:48.210Z,97299.00
2019-02-02T09:47:20.309Z,97302.47
2019-02-02T09:49:52.259Z,97303.20
2019-02-02T09:52:25.997Z,97296.92
2019-02-02T09:54:57.560Z,97292.97
2019-02-02T09:57:29.174Z,97295.38
2019-02-02T10:00:00.751Z,97296.42
2019-02-02T10:02:32.355Z,97291.16
2019-02-02T10:05:03.891Z,97292.79
2019-02-02T10:07:35.482Z,97294.48
2019-02-02T10:10:08.883Z,97291.31
2019-02-02T10:12:40.610Z,97284.00
2019-02-02T10:15:13.398Z,97288.39
2019-02-02T10:17:44.947Z,97287.75
2019-02-02T10:20:19.760Z,97286.61
2019-02-02T10:22:51.745Z,97293.08
2019-02-02T10:25:25.474Z,97288.78
2019-02-02T10:27:58.291Z,97277.92
2019-02-02T10:30:32.117Z,97274.44
2019-02-02T10:33:03.891Z,97269.18
2019-02-02T10:35:35.381Z,97272.87
2019-02-02T10:38:07.465Z,97275.58
2019-02-02T10:40:39.091Z,97265.12
2019-02-02T10:43:10.824Z,97270.89
2019-02-02T10:45:42.454Z,97262.19
2019-02-02T10:48:13.987Z,97267.15
2019-02-02T10:50:45.409Z,97265.44
2019-02-02T10:53:17.868Z,97266.41
2019-02-02T10:55:49.482Z,97262.16
2019-02-02T10:58:21.190Z,97260.08
2019-02-02T11:00:52.701Z,97243.80
2019-02-02T11:03:24.467Z,97243.57
2019-02-02T11:05:56.125Z,97243.77
2019-02-02T11:08:27.873Z,97242.63
2019-02-02T11:10:59.527Z,97241.52
2019-02-02T11:13:31.186Z,97240.09
2019-02-02T11:16:02.960Z,97233.50
2019-02-02T11:18:34.636Z,97234.68
2019-02-02T11:21:06.248Z,97231.98
2019-02-02T11:23:37.988Z,97229.74
2019-02-02T11:26:11.925Z,97221.53
2019-02-02T11:28:43.671Z,97220.48
2019-02-02T11:31:15.313Z,97214.66
2019-02-02T11:33:47.008Z,97214.66
2019-02-02T11:36:18.645Z,97211.31
2019-02-02T11:38:50.188Z,97211.27
2019-02-02T11:41:21.853Z,97212.09
2019-02-02T11:43:53.461Z,97205.84
2019-02-02T11:46:25.511Z,97200.80
2019-02-02T11:48:57.281Z,97200.77
2019-02-02T11:51:30.687Z,97189.77
2019-02-02T11:54:02.315Z,97197.48
2019-02-02T11:56:33.832Z,97199.83
2019-02-02T11:59:05.468Z,97199.83
2019-02-02T12:01:37.083Z,97195.09
2019-02-02T12:04:08.738Z,97181.64
2019-02-02T12:06:40.296Z,97190.53
2019-02-02T12:09:12.059Z,97180.63
2019-02-02T12:11:43.550Z,97177.08
2019-02-02T12:14:15.132Z,97181.39
2019-02-02T12:16:46.655Z,97183.59
2019-02-02T12:19:18.403Z,97186.04
2019-02-02T12:21:49.946Z,97186.73
2019-02-02T12:24:21.679Z,97179.45
2019-02-02T12:26:53.384Z,97183.31
2019-02-02T12:29:25.689Z,97177.29
2019-02-02T12:31:57.318Z,97188.17
2019-02-02T12:34:29.134Z,97182.75
2019-02-02T12:37:00.893Z,97176.77
2019-02-02T12:39:33.923Z,97184.36
2019-02-02T12:42:05.765Z,97179.40
2019-02-02T12:44:37.501Z,97177.41
2019-02-02T12:47:09.424Z,97180.42
2019-02-02T12:49:41.170Z,97179.42
2019-02-02T12:52:13.033Z,97182.48
2019-02-02T12:54:44.611Z,97180.95
2019-02-02T12:57:18.647Z,97179.91
2019-02-02T12:59:50.367Z,97176.49
2019-02-02T13:02:25.385Z,97182.24
2019-02-02T13:04:56.366Z,97182.52
2019-02-02T13:07:28.111Z,97172.23
2019-02-02T13:09:59.780Z,97177.80
2019-02-02T13:12:31.663Z,97189.37
2019-02-02T13:15:03.338Z,97181.03
2019-02-02T13:17:35.254Z,97190.11
2019-02-02T13:20:07.884Z,97187.08
2019-02-02T13:22:39.673Z,97187.91
2019-02-02T13:25:13.578Z,97196.42
2019-02-02T13:27:45.185Z,97187.78
2019-02-02T13:30:22.663Z,97188.15
2019-02-02T13:32:54.242Z,97180.60
2019-02-02T13:35:25.822Z,97184.86
2019-02-02T13:37:57.413Z,97183.95
2019-02-02T13:40:29.015Z,97185.48
2019-02-02T13:43:00.568Z,97189.03
2019-02-02T13:45:32.120Z,97187.97
2019-02-02T13:48:04.007Z,97190.20
2019-02-02T13:50:36.987Z,97197.98
2019-02-02T13:53:09.690Z,97192.56
2019-02-02T13:55:42.507Z,97197.38
2019-02-02T13:58:14.195Z,97201.63
2019-02-02T14:00:45.679Z,97199.53
2019-02-02T14:03:17.305Z,97212.74
2019-02-02T14:05:49.046Z,97209.80
2019-02-02T14:08:20.584Z,97207.36
2019-02-02T14:10:52.144Z,97206.77
2019-02-02T14:13:23.704Z,97208.44
2019-02-02T14:15:55.363Z,97208.20
2019-02-02T14:18:26.915Z,97208.09
2019-02-02T14:20:58.562Z,97202.77
2019-02-02T14:23:30.151Z,97202.73
2019-02-02T14:26:01.952Z,97200.91
2019-02-02T14:28:34.792Z,97200.91
2019-02-02T14:31:06.419Z,97200.09
2019-02-02T14:33:38.005Z,97203.00
2019-02-02T14:36:09.698Z,97201.19
2019-02-02T14:38:41.361Z,97190.55
2019-02-02T14:41:13.169Z,97192.06
2019-02-02T14:43:44.863Z,97193.22
2019-02-02T14:46:16.706Z,97188.89
2019-02-02T14:48:48.413Z,97189.77
2019-02-02T14:51:19.921Z,97179.04
2019-02-02T14:53:51.474Z,97189.36
2019-02-02T14:56:23.022Z,97189.30
2019-02-02T14:58:54.643Z,97195.81
2019-02-02T15:01:26.185Z,97186.06
2019-02-02T15:03:57.934Z,97191.55
2019-02-02T15:06:29.458Z,97191.55
2019-02-02T15:09:01.107Z,97186.20
2019-02-02T15:11:34.200Z,97185.72
2019-02-02T15:14:05.729Z,97187.84
2019-02-02T15:16:37.349Z,97187.13
2019-02-02T15:19:12.288Z,97191.97
2019-02-02T15:21:44.023Z,97198.13
2019-02-02T15:24:15.696Z,97201.69
2019-02-02T15:26:47.497Z,97208.03
2019-02-02T15:29:19.217Z,97207.70
2019-02-02T15:31:50.866Z,97210.23
2019-02-02T15:34:22.539Z,97210.34
2019-02-02T15:36:54.106Z,97217.70
2019-02-02T15:39:26.130Z,97217.13
2019-02-02T15:41:57.867Z,97222.43
2019-02-02T15:44:29.566Z,97230.12
2019-02-02T15:47:01.226Z,97227.88
2019-02-02T15:49:33.015Z,97219.42
2019-02-02T15:52:04.691Z,97222.40
2019-02-02T15:54:36.352Z,97220.90
2019-02-02T15:57:08.013Z,97217.16
2019-02-02T15:59:39.591Z,97225.88
2019-02-02T16:02:13.974Z,97226.71
2019-02-02T16:04:45.611Z,97226.22
2019-02-02T16:07:17.183Z,97226.22
2019-02-02T16:09:48.740Z,97220.70
2019-02-02T16:12:20.263Z,97208.89
2019-02-02T16:14:52.843Z,97218.95
2019-02-02T16:17:24.384Z,97215.38
2019-02-02T16:19:55.993Z,97213.53
2019-02-02T16:22:28.792Z,97213.84
2019-02-02T16:25:00.438Z,97210.25
2019-02-02T16:27:32.181Z,97214.54
2019-02-02T16:30:03.848Z,97215.72
2019-02-02T16:32:36.682Z,97223.51
2019-02-02T16:35:09.570Z,97221.46
2019-02-02T16:37:41.289Z,97228.75
2019-02-02T16:40:15.882Z,97226.39
2019-02-02T16:42:47.417Z,97226.25
2019-02-02T16:45:21.187Z,97234.09
2019-02-02T16:47:52.981Z,97230.84
2019-02-02T16:50:24.803Z,97230.57
2019-02-02T16:52:56.605Z,97216.80
2019-02-02T16:55:28.304Z,97233.00
2019-02-02T16:57:59.943Z,97228.86
2019-02-02T17:00:33.454Z,97223.39
2019-02-02T17:03:05.255Z,97230.24
2019-02-02T17:05:36.851Z,97231.29
2019-02-02T17:08:10.832Z,97226.95
2019-02-02T17:10:42.380Z,97231.83
2019-02-02T17:13:14.145Z,97231.23
2019-02-02T17:15:50.119Z,97229.87
2019-02-02T17:18:23.609Z,97231.63
2019-02-02T17:20:55.271Z,97230.02
2019-02-02T17:23:26.771Z,97227.62
2019-02-02T17:25:59.971Z,97229.55
2019-02-02T17:28:33.365Z,97222.57
2019-02-02T17:31:05.301Z,97223.88
2019-02-02T17:33:37.634Z,97225.88
2019-02-02T17:36:10.847Z,97221.07
2019-02-02T17:38:42.400Z,97217.15
2019-02-02T17:41:13.923Z,97219.98
2019-02-02T17:43:45.436Z,97211.30
2019-02-02T17:46:16.950Z,97220.30
2019-02-02T17:48:48.715Z,97217.06
2019-02-02T17:51:20.303Z,97216.52
2019-02-02T17:53:51.988Z,97211.81
2019-02-02T17:56:23.691Z,97209.59
2019-02-02T17:58:55.416Z,97210.16
2019-02-02T18:01:27.126Z,97208.30
2019-02-02T18:03:58.632Z,97213.45
2019-02-02T18:06:30.223Z,97224.23
2019-02-02T18:09:04.911Z,97219.80
2019-02-02T18:11:36.833Z,97217.83
2019-02-02T18:14:08.477Z,97208.30
2019-02-02T18:16:41.294Z,97204.20
2019-02-02T18:19:12.815Z,97215.16
2019-02-02T18:21:44.372Z,97213.91
2019-02-02T18:24:15.829Z,97217.13
2019-02-02T18:26:47.563Z,97217.73
2019-02-02T18:29:19.083Z,97214.93
2019-02-02T18:31:50.736Z,97209.95
2019-02-02T18:34:22.413Z,97210.18
2019-02-02T18:36:54.002Z,97212.11
2019-02-02T18:39:25.574Z,97212.30
2019-02-02T18:41:57.273Z,97209.88
2019-02-02T18:44:30.113Z,97211.99
2019-02-02T18:47:03.045Z,97206.00
2019-02-02T18:49:34.622Z,97205.08
2019-02-02T18:52:06.388Z,97206.98
2019-02-02T18:54:38.097Z,97205.94
2019-02-02T18:57:10.249Z,97202.76
2019-02-02T18:59:42.928Z,97197.63
2019-02-02T19:02:15.031Z,97208.16
2019-02-02T19:04:46.591Z,97202.04
2019-02-02T19:07:18.614Z,97204.98
2019-02-02T19:09:50.282Z,97205.51
2019-02-02T19:12:23.062Z,97199.70
2019-02-02T19:14:56.158Z,97202.55
2019-02-02T19:17:27.933Z,97207.37
2019-02-02T19:19:59.569Z,97198.53
2019-02-02T19:22:31.093Z,97192.42
2019-02-02T19:25:02.721Z,97198.22
2019-02-02T19:27:34.292Z,97202.55
2019-02-02T19:30:07.617Z,97198.98
2019-02-02T19:32:39.255Z,97194.82
2019-02-02T19:37:45.985Z,97195.08
2019-02-02T19:40:17.859Z,97200.02
2019-02-02T19:42:49.589Z,97209.05
2019-02-02T19:45:23.950Z,97207.88
2019-02-02T19:47:55.582Z,97202.59
2019-02-02T19:50:27.535Z,97199.45
2019-02-02T19:52:59.074Z,97203.38
2019-02-02T19:55:30.772Z,97210.41
2019-02-02T19:58:02.352Z,97210.18
2019-02-02T20:00:34.512Z,97210.03
2019-02-02T20:03:06.523Z,97204.69
2019-02-02T20:05:39.282Z,97206.97
2019-02-02T20:08:11.016Z,97201.13
2019-02-02T20:10:42.705Z,97213.19
2019-02-02T20:13:14.316Z,97211.02
2019-02-02T20:15:46.010Z,97209.20
2019-02-02T20:18:17.505Z,97194.41
2019-02-02T20:20:49.124Z,97206.32
2019-02-02T20:23:20.802Z,97205.55
2019-02-02T20:25:52.553Z,97208.70
2019-02-02T20:28:25.335Z,97211.86
2019-02-02T20:30:57.032Z,97212.01
2019-02-02T20:33:28.747Z,97210.48
2019-02-02T20:36:00.370Z,97215.73
2019-02-02T20:38:31.979Z,97211.70
2019-02-02T20:41:03.792Z,97209.84
2019-02-02T20:43:36.472Z,97210.05
2019-02-02T20:46:09.130Z,97210.92
2019-02-02T20:48:40.654Z,97215.09
2019-02-02T20:51:12.292Z,97214.38
2019-02-02T20:53:43.761Z,97207.92
2019-02-02T20:56:15.561Z,97203.29
2019-02-02T20:58:47.155Z,97204.36
2019-02-02T21:01:20.102Z,97206.44
2019-02-02T21:03:53.316Z,97202.22
2019-02-02T21:06:24.841Z,97190.27
2019-02-02T21:08:57.786Z,97195.28
2019-02-02T21:11:30.013Z,97192.62
2019-02-02T21:14:01.647Z,97191.59
2019-02-02T21:16:33.843Z,97197.48
2019-02-02T21:19:05.913Z,97200.46
2019-02-02T21:21:37.993Z,97197.70
2019-02-02T21:24:09.757Z,97197.74
2019-02-02T21:26:41.371Z,97197.63
2019-02-02T21:29:13.091Z,97198.92
2019-02-02T21:31:47.311Z,97195.73
2019-02-02T21:34:19.219Z,97199.89
2019-02-02T21:36:50.935Z,97200.12
2019-02-02T21:39:22.421Z,97201.50
2019-02-02T21:41:54.130Z,97201.42
2019-02-02T21:44:25.656Z,97204.56
2019-02-02T21:46:57.729Z,97202.22
2019-02-02T21:49:29.295Z,97199.75
2019-02-02T21:52:01.223Z,97204.00
2019-02-02T21:54:32.815Z,97204.64
2019-02-02T21:57:04.947Z,97206.05
2019-02-02T21:59:37.080Z,97201.00
2019-02-02T22:02:08.791Z,97200.00
2019-02-02T22:04:41.546Z,97204.22
2019-02-02T22:07:13.250Z,97197.27
2019-02-02T22:09:44.945Z,97209.22
2019-02-02T22:12:16.707Z,97203.63
2019-02-02T22:14:48.388Z,97199.34
2019-02-02T22:17:20.041Z,97195.34
2019-02-02T22:19:51.794Z,97199.05
2019-02-02T22:22:27.413Z,97198.13
2019-02-02T22:24:59.013Z,97199.42
2019-02-02T22:27:33.064Z,97193.33
2019-02-02T22:30:07.790Z,97193.16
2019-02-02T22:32:40.869Z,97195.09
2019-02-02T22:35:14.434Z,97187.13
2019-02-02T22:37:46.122Z,97192.70
2019-02-02T22:40:19.963Z,97195.02
2019-02-02T22:42:51.608Z,97191.55
2019-02-02T22:45:23.698Z,97189.70
2019-02-02T22:47:55.308Z,97186.64
2019-02-02T22:50:27.999Z,97193.55
2019-02-02T22:52:59.493Z,97197.25
2019-02-02T22:55:31.062Z,97194.94
2019-02-02T22:58:02.712Z,97195.80
2019-02-02T23:01:07.744Z,97200.17
2019-02-02T23:04:30.726Z,97200.39
2019-02-02T23:07:23.698Z,97196.36
2019-02-02T23:10:22.102Z,97196.52
2019-02-02T23:13:33.319Z,97200.89
2019-02-02T23:16:24.863Z,97198.70
2019-02-02T23:18:56.921Z,97206.94
2019-02-02T23:21:30.082Z,97203.85
2019-02-02T23:24:05.062Z,97202.19
2019-02-02T23:26:36.587Z,97207.61
2019-02-02T23:29:09.780Z,97203.74
2019-02-02T23:31:44.267Z,97202.72
2019-02-02T23:34:16.581Z,97196.30
2019-02-02T23:36:51.964Z,97202.75
2019-02-02T23:39:23.878Z,97201.68
2019-02-02T23:41:55.563Z,97204.88
2019-02-02T23:44:27.256Z,97202.83
2019-02-02T23:47:36.923Z,97201.55
2019-02-02T23:50:11.539Z,97207.86
2019-02-02T23:52:43.157Z,97212.14
2019-02-02T23:55:14.831Z,97211.58
2019-02-02T23:57:46.572Z,97208.66
